Time;durP1;ratioP1;P1;durP2;ratioP2;P2;SDS_P1;SDS_P2;PMS_P1;PMS_P2;Temp;Humidity;BMP_temperature;BMP_pressure;BME280_temperature;BME280_humidity;BME280_pressure;Samples;Min_cycle;Max_cycle;Signal;HPM_P1;HPM_P2
2021/10/03 00:00:22;;;;;;;2.28;1.38;;;;;;;16.01;96.92;99431.03;5048285;28;20397;-53
2021/10/03 00:02:50;;;;;;;3.55;1.92;;;;;;;16.00;96.15;99430.22;5043178;28;20546;-57
2021/10/03 00:05:20;;;;;;;2.08;1.13;;;;;;;16.02;94.88;99436.19;5053702;28;20483;-55
2021/10/03 00:07:50;;;;;;;1.70;1.40;;;;;;;16.06;94.51;99444.56;5053740;28;20075;-57
2021/10/03 00:10:23;;;;;;;1.02;0.93;;;;;;;16.05;95.53;99443.75;5052849;28;20045;-57
2021/10/03 00:12:51;;;;;;;2.72;1.30;;;;;;;16.06;95.23;99439.84;5037966;28;20376;-58
2021/10/03 00:15:20;;;;;;;1.10;1.00;;;;;;;16.06;95.41;99436.31;5053522;28;20048;-54
2021/10/03 00:17:48;;;;;;;1.38;1.23;;;;;;;16.07;94.89;99452.47;5053429;28;20033;-57
2021/10/03 00:20:17;;;;;;;2.08;1.60;;;;;;;16.07;96.06;99443.44;5053738;28;20064;-57
2021/10/03 00:22:45;;;;;;;2.05;1.20;;;;;;;16.07;96.18;99435.97;5040264;28;20045;-55
2021/10/03 00:25:13;;;;;;;2.08;1.40;;;;;;;16.09;94.98;99438.38;5053238;28;20495;-58
2021/10/03 00:27:42;;;;;;;1.13;0.82;;;;;;;16.10;94.86;99442.75;5043208;28;20049;-58
2021/10/03 00:30:11;;;;;;;1.50;1.10;;;;;;;16.09;96.21;99439.19;5053234;28;20052;-58
2021/10/03 00:32:39;;;;;;;0.95;0.95;;;;;;;16.08;95.74;99443.06;5042518;28;20116;-58
2021/10/03 00:35:07;;;;;;;0.95;0.88;;;;;;;16.08;95.68;99443.06;5027624;28;20554;-58
2021/10/03 00:37:35;;;;;;;3.78;1.63;;;;;;;16.08;95.77;99443.06;5032653;28;20037;-54
2021/10/03 00:40:04;;;;;;;1.67;1.00;;;;;;;16.09;95.91;99441.13;5033095;28;20053;-58
2021/10/03 00:42:32;;;;;;;2.05;1.10;;;;;;;16.09;95.02;99444.69;5032928;28;20049;-59
2021/10/03 00:45:00;;;;;;;2.33;1.00;;;;;;;16.11;95.32;99436.88;5031603;28;20049;-57
2021/10/03 00:47:27;;;;;;;2.80;1.35;;;;;;;16.11;96.47;99433.34;5032745;28;20045;-57
2021/10/03 00:49:57;;;;;;;1.20;0.80;;;;;;;16.11;96.52;99431.41;5032890;28;20493;-57
2021/10/03 00:52:25;;;;;;;2.03;1.20;;;;;;;16.11;96.02;99436.88;5032447;28;20103;-57
2021/10/03 00:54:53;;;;;;;1.83;1.10;;;;;;;16.13;96.34;99429.13;5032340;28;20044;-58
2021/10/03 00:57:20;;;;;;;1.05;1.00;;;;;;;16.13;96.74;99434.59;5032463;28;20051;-54
2021/10/03 00:59:48;;;;;;;1.13;0.90;;;;;;;16.15;96.41;99426.84;5031453;28;20029;-58
2021/10/03 01:02:16;;;;;;;1.20;0.75;;;;;;;16.15;95.79;99432.34;5032438;28;20041;-57
2021/10/03 01:04:43;;;;;;;0.95;0.93;;;;;;;16.15;98.01;99443.31;5025196;28;20045;-57
2021/10/03 01:07:11;;;;;;;1.95;0.90;;;;;;;16.15;97.20;99409.56;5032177;28;20057;-58
2021/10/03 01:09:38;;;;;;;1.77;1.20;;;;;;;16.16;96.86;99428.47;5032544;28;20033;-57
2021/10/03 01:12:06;;;;;;;1.73;1.10;;;;;;;16.17;97.51;99424.56;5032757;28;20041;-58
2021/10/03 01:14:34;;;;;;;0.82;0.82;;;;;;;16.16;97.28;99422.97;5030287;28;20044;-58
2021/10/03 01:17:01;;;;;;;4.13;1.25;;;;;;;16.16;97.57;99427.63;5032440;28;20715;-58
2021/10/03 01:19:29;;;;;;;0.98;0.75;;;;;;;16.15;97.66;99429.59;5032189;28;20049;-55
2021/10/03 01:21:57;;;;;;;2.08;1.02;;;;;;;16.13;98.07;99426.38;5030802;28;20052;-57
2021/10/03 01:24:24;;;;;;;2.35;0.90;;;;;;;16.13;99.66;99439.31;5031312;28;20040;-57
2021/10/03 01:26:52;;;;;;;1.15;0.85;;;;;;;16.12;99.52;99423.97;5031995;28;20131;-58
2021/10/03 01:29:21;;;;;;;2.40;0.77;;;;;;;16.11;99.93;99420.41;5032477;28;20095;-58
2021/10/03 01:31:48;;;;;;;1.08;0.98;;;;;;;16.12;98.44;99432.22;5032132;28;20046;-56
2021/10/03 01:34:16;;;;;;;0.88;0.85;;;;;;;16.11;100.00;99414.91;5031535;28;20067;-55
2021/10/03 01:36:43;;;;;;;0.98;0.77;;;;;;;16.12;100.00;99416.53;5031631;28;20048;-57
2021/10/03 01:39:11;;;;;;;1.05;1.05;;;;;;;16.11;100.00;99414.91;5032290;28;20119;-54
2021/10/03 01:41:39;;;;;;;1.20;1.10;;;;;;;16.11;100.00;99414.91;5032008;28;20038;-58
2021/10/03 01:44:07;;;;;;;4.10;1.00;;;;;;;16.10;100.00;99413.31;5031192;28;20053;-57
2021/10/03 01:46:35;;;;;;;0.70;0.70;;;;;;;16.10;100.00;99407.81;5031686;28;20049;-55
2021/10/03 01:49:02;;;;;;;1.33;1.00;;;;;;;16.10;100.00;99402.31;5031693;28;20098;-54
2021/10/03 01:51:30;;;;;;;1.23;0.80;;;;;;;16.11;100.00;99403.13;5031470;28;20443;-58
2021/10/03 01:53:58;;;;;;;0.50;0.50;;;;;;;16.12;100.00;99404.75;5030917;28;20455;-58
2021/10/03 01:56:27;;;;;;;1.80;1.20;;;;;;;16.12;100.00;99399.25;5031996;28;20128;-57
2021/10/03 01:58:57;;;;;;;2.03;0.75;;;;;;;16.11;100.00;99403.13;5031646;28;20075;-57
2021/10/03 02:01:28;;;;;;;3.05;1.00;;;;;;;16.11;100.00;99403.91;5031734;28;20056;-58
2021/10/03 02:03:56;;;;;;;1.23;0.90;;;;;;;16.11;100.00;99398.41;5030922;28;20069;-58
2021/10/03 02:06:25;;;;;;;1.05;1.00;;;;;;;16.11;100.00;99386.63;5031408;28;20492;-56
2021/10/03 02:08:54;;;;;;;0.90;0.90;;;;;;;16.11;100.00;99387.44;5031547;28;20050;-56
2021/10/03 02:11:24;;;;;;;1.23;1.08;;;;;;;16.11;100.00;99384.69;5031479;28;20440;-53
2021/10/03 02:13:52;;;;;;;1.70;1.33;;;;;;;16.13;100.00;99385.16;5030913;28;20037;-52
2021/10/03 02:16:19;;;;;;;3.00;1.00;;;;;;;16.15;100.00;99398.56;5017447;28;20415;-58
2021/10/03 02:18:47;;;;;;;0.85;0.85;;;;;;;16.14;100.00;99385.97;5030855;28;20500;-54
2021/10/03 02:21:15;;;;;;;0.93;0.85;;;;;;;16.14;100.00;99388.72;5031311;28;20054;-56
2021/10/03 02:23:44;;;;;;;1.00;0.90;;;;;;;16.12;100.00;99383.56;5029637;28;20489;-56
2021/10/03 02:26:13;;;;;;;3.28;1.48;;;;;;;16.12;100.00;99369.81;5031237;28;20042;-56
2021/10/03 02:28:41;;;;;;;0.85;0.80;;;;;;;16.12;100.00;99367.06;5031346;28;20046;-58
2021/10/03 02:31:11;;;;;;;0.88;0.80;;;;;;;16.12;100.00;99374.53;5031461;28;20068;-58
2021/10/03 02:33:42;;;;;;;1.45;0.93;;;;;;;16.10;100.00;99352.88;5030539;28;20060;-56
2021/10/03 02:36:11;;;;;;;1.08;1.00;;;;;;;16.10;100.00;99361.09;5030989;28;20088;-56
2021/10/03 02:38:39;;;;;;;0.80;0.80;;;;;;;16.09;100.00;99347.69;5034789;28;20041;-56
2021/10/03 02:41:08;;;;;;;1.92;1.13;;;;;;;16.08;100.00;99344.16;5035387;28;20096;-53
2021/10/03 02:43:38;;;;;;;1.08;1.08;;;;;;;16.08;100.00;99352.41;5035152;28;20045;-56
2021/10/03 02:46:06;;;;;;;1.67;1.08;;;;;;;16.09;100.00;99342.22;5033142;28;20132;-55
2021/10/03 02:48:36;;;;;;;1.42;0.88;;;;;;;16.09;100.00;99336.72;5034564;28;20407;-58
2021/10/03 02:51:04;;;;;;;4.25;1.25;;;;;;;16.09;100.00;99345.78;5035062;28;20100;-57
2021/10/03 02:53:32;;;;;;;3.80;1.25;;;;;;;16.08;100.00;99330.41;5034747;28;20045;-57
2021/10/03 02:55:59;;;;;;;1.50;1.00;;;;;;;16.09;100.00;99318.31;5034561;28;20424;-54
2021/10/03 02:58:29;;;;;;;0.98;0.93;;;;;;;16.10;100.00;99333.63;5035281;28;20050;-57
2021/10/03 03:00:57;;;;;;;2.17;1.20;;;;;;;16.11;100.00;99332.47;5034919;28;20049;-57
2021/10/03 03:03:24;;;;;;;1.10;1.00;;;;;;;16.11;100.00;99324.22;5034506;28;20052;-53
2021/10/03 03:05:52;;;;;;;1.20;1.10;;;;;;;16.12;100.00;99312.13;5034430;28;20041;-58
2021/10/03 03:08:20;;;;;;;1.23;1.13;;;;;;;16.13;100.00;99299.16;5035178;28;20057;-58
2021/10/03 03:10:47;;;;;;;2.92;1.20;;;;;;;16.13;100.00;99330.19;5034979;28;20104;-54
2021/10/03 03:13:15;;;;;;;1.48;1.38;;;;;;;16.15;100.00;99330.66;5035130;28;20052;-56
2021/10/03 03:15:42;;;;;;;2.20;1.20;;;;;;;16.18;100.00;99327.22;5033837;28;20073;-56
2021/10/03 03:18:10;;;;;;;3.47;1.02;;;;;;;16.21;100.00;99330.44;5033660;28;20132;-56
2021/10/03 03:20:38;;;;;;;2.47;1.30;;;;;;;16.19;100.00;99331.59;5034676;28;20042;-56
2021/10/03 03:23:05;;;;;;;4.72;1.50;;;;;;;16.19;100.00;99339.84;5034520;28;20042;-56
2021/10/03 03:25:33;;;;;;;3.38;1.20;;;;;;;16.21;100.00;99325.75;5034485;28;20504;-56
2021/10/03 03:28:00;;;;;;;2.88;1.67;;;;;;;16.24;100.00;99329.75;5032727;28;20045;-55
2021/10/03 03:30:28;;;;;;;2.65;1.75;;;;;;;16.25;100.00;99334.91;5034156;28;20045;-57
2021/10/03 03:32:56;;;;;;;3.15;1.63;;;;;;;16.25;100.00;99358.84;5034087;28;20408;-58
2021/10/03 03:35:24;;;;;;;2.50;1.77;;;;;;;16.27;100.00;99340.06;5034494;28;20052;-58
2021/10/03 03:37:52;;;;;;;1.80;1.70;;;;;;;16.28;100.00;99349.91;5033703;28;20048;-58
2021/10/03 03:40:20;;;;;;;2.15;1.63;;;;;;;16.28;100.00;99369.94;5034577;28;20045;-58
2021/10/03 03:42:48;;;;;;;2.17;1.75;;;;;;;16.28;100.00;99349.91;5034432;28;20044;-57
2021/10/03 03:45:16;;;;;;;2.55;1.50;;;;;;;16.26;100.00;99354.94;5033681;28;20045;-58
2021/10/03 03:47:44;;;;;;;2.00;1.73;;;;;;;16.25;100.00;99358.84;5032994;28;20056;-57
2021/10/03 03:50:13;;;;;;;2.45;1.60;;;;;;;16.24;100.00;99395.72;5032883;28;20053;-55
2021/10/03 03:52:42;;;;;;;3.75;1.95;;;;;;;16.24;100.00;99377.28;5034312;28;20502;-56
2021/10/03 03:55:10;;;;;;;4.70;2.03;;;;;;;16.18;100.00;99288.75;5034053;28;20057;-52
2021/10/03 03:57:38;;;;;;;1.40;1.30;;;;;;;16.15;100.00;99380.13;5034129;28;20041;-56
2021/10/03 04:00:09;;;;;;;1.77;1.20;;;;;;;16.12;100.00;99399.25;5033286;28;20041;-54
2021/10/03 04:02:37;;;;;;;1.85;1.20;;;;;;;16.10;100.00;99410.56;5033208;28;20041;-56
2021/10/03 04:05:06;;;;;;;3.58;1.75;;;;;;;16.06;100.00;99384.91;5034025;28;20049;-54
2021/10/03 04:07:33;;;;;;;4.82;1.75;;;;;;;16.07;100.00;99386.53;5033910;28;20042;-55
2021/10/03 04:10:01;;;;;;;3.97;1.90;;;;;;;16.11;99.70;99387.44;5033161;28;20057;-54
2021/10/03 04:12:30;;;;;;;2.63;1.98;;;;;;;16.11;100.00;99383.88;5033558;28;20045;-55
2021/10/03 04:15:17;;;;;;;4.07;2.10;;;;;;;16.12;100.00;99388.25;5032891;28;20069;-57
2021/10/03 04:18:05;;;;;;;3.55;2.10;;;;;;;16.12;100.00;99394.53;5033360;28;20049;-56
2021/10/03 04:20:52;;;;;;;3.17;1.88;;;;;;;16.10;100.00;99398.78;5033748;28;20042;-58
2021/10/03 04:23:41;;;;;;;1.67;1.48;;;;;;;16.05;100.00;99397.06;5036215;28;20084;-58
2021/10/03 04:26:10;;;;;;;3.47;1.58;;;;;;;16.01;100.00;99387.88;5037258;28;20493;-56
2021/10/03 04:28:37;;;;;;;3.70;1.90;;;;;;;15.98;100.00;99402.28;5035756;28;20053;-57
2021/10/03 04:31:05;;;;;;;3.63;2.03;;;;;;;15.95;100.00;99406.53;5033665;28;20037;-58
2021/10/03 04:33:33;;;;;;;3.15;1.90;;;;;;;15.94;100.00;99410.41;5033203;28;20041;-57
2021/10/03 04:36:00;;;;;;;2.20;1.75;;;;;;;15.90;99.57;99404.00;5033329;28;20052;-58
2021/10/03 04:38:28;;;;;;;3.53;1.30;;;;;;;15.85;100.00;99406.13;5018543;28;20037;-55
2021/10/03 04:40:55;;;;;;;1.50;0.85;;;;;;;15.77;99.25;99414.13;5033072;28;20397;-58
2021/10/03 04:43:23;;;;;;;1.65;0.85;;;;;;;15.71;98.78;99407.25;5032455;28;20045;-54
2021/10/03 04:45:50;;;;;;;2.50;1.02;;;;;;;15.66;98.24;99409.38;5032732;28;20045;-55
2021/10/03 04:48:18;;;;;;;1.67;0.85;;;;;;;15.60;97.33;99427.97;5032768;28;20095;-54
2021/10/03 04:50:46;;;;;;;2.65;0.80;;;;;;;15.53;97.41;99417.53;5032800;28;20041;-54
2021/10/03 04:53:13;;;;;;;3.85;0.90;;;;;;;15.47;97.01;99413.38;5032498;28;20045;-55
2021/10/03 04:55:41;;;;;;;0.60;0.52;;;;;;;15.44;96.82;99410.50;5032585;28;20496;-55
2021/10/03 04:58:09;;;;;;;1.33;1.00;;;;;;;15.41;96.73;99422.16;5032398;28;20049;-51
2021/10/03 05:00:37;;;;;;;2.75;0.95;;;;;;;15.38;95.78;99414.59;5031754;28;20034;-55
2021/10/03 05:03:04;;;;;;;3.70;0.90;;;;;;;15.34;95.93;99404.31;5032444;28;20120;-55
2021/10/03 05:05:32;;;;;;;2.72;1.00;;;;;;;15.31;95.82;99406.88;5032073;28;20049;-52
2021/10/03 05:07:59;;;;;;;1.95;0.90;;;;;;;15.30;95.63;99419.03;5032829;28;20058;-54
2021/10/03 05:10:27;;;;;;;1.38;0.95;;;;;;;15.30;96.09;99399.81;5032091;28;20080;-52
2021/10/03 05:12:55;;;;;;;1.80;0.95;;;;;;;15.32;95.65;99406.56;5031874;28;20099;-52
2021/10/03 05:15:22;;;;;;;1.45;0.60;;;;;;;15.34;95.76;99409.78;5032034;28;20068;-54
2021/10/03 05:17:50;;;;;;;1.35;0.88;;;;;;;15.39;95.61;99405.22;5032048;28;20531;-53
2021/10/03 05:20:17;;;;;;;1.85;0.95;;;;;;;15.40;95.31;99404.09;5032011;28;20025;-54
2021/10/03 05:22:45;;;;;;;3.60;1.40;;;;;;;15.41;95.29;99411.19;5031749;28;20045;-51
2021/10/03 05:25:12;;;;;;;2.10;0.93;;;;;;;15.37;94.07;99410.22;5032140;28;20037;-52
2021/10/03 05:27:40;;;;;;;2.05;1.02;;;;;;;15.34;93.98;99409.78;5031652;28;20570;-54
2021/10/03 05:30:08;;;;;;;2.67;1.25;;;;;;;15.29;94.15;99412.72;5031970;28;20103;-54
2021/10/03 05:32:37;;;;;;;0.68;0.68;;;;;;;15.28;94.61;99405.63;5031825;28;20044;-50
2021/10/03 05:35:05;;;;;;;2.28;1.13;;;;;;;15.29;94.73;99414.66;5031481;28;20049;-55
2021/10/03 05:37:33;;;;;;;1.60;0.80;;;;;;;15.28;94.78;99405.63;5031963;28;20045;-54
2021/10/03 05:40:00;;;;;;;1.95;0.80;;;;;;;15.29;95.08;99406.41;5031479;28;20052;-54
2021/10/03 05:42:28;;;;;;;3.67;1.05;;;;;;;15.30;94.71;99403.34;5031672;28;20100;-55
2021/10/03 05:44:55;;;;;;;2.03;1.27;;;;;;;15.28;94.46;99400.13;5031295;28;20443;-57
2021/10/03 05:47:23;;;;;;;3.67;0.93;;;;;;;15.27;94.42;99406.78;5031930;28;20427;-51
2021/10/03 05:49:50;;;;;;;3.00;1.05;;;;;;;15.27;94.68;99425.97;5031637;28;20049;-54
2021/10/03 05:52:18;;;;;;;2.53;1.60;;;;;;;15.29;94.62;99412.72;5031669;28;20053;-54
2021/10/03 05:54:45;;;;;;;3.17;1.48;;;;;;;15.29;94.47;99407.22;5031554;28;20041;-55
2021/10/03 05:57:13;;;;;;;1.33;0.90;;;;;;;15.29;94.53;99404.47;5031448;28;20087;-49
2021/10/03 05:59:41;;;;;;;2.00;1.00;;;;;;;15.28;94.18;99397.38;5031321;28;20484;-55
2021/10/03 06:02:08;;;;;;;2.63;1.15;;;;;;;15.24;94.13;99401.94;5031553;28;20049;-51
2021/10/03 06:04:36;;;;;;;2.28;1.20;;;;;;;15.22;94.30;99411.63;5031669;28;20051;-52
2021/10/03 06:07:04;;;;;;;1.45;0.90;;;;;;;15.23;94.61;99396.78;5031212;28;20527;-52
2021/10/03 06:09:31;;;;;;;2.38;1.05;;;;;;;15.23;94.30;99392.09;5031597;28;20045;-52
2021/10/03 06:11:59;;;;;;;2.42;1.10;;;;;;;15.17;93.95;99395.38;5030935;28;20049;-54
2021/10/03 06:14:26;;;;;;;2.28;1.00;;;;;;;15.15;94.54;99394.91;5031461;28;20041;-52
2021/10/03 06:16:54;;;;;;;2.67;1.15;;;;;;;15.14;95.09;99396.84;5030872;28;20409;-51
2021/10/03 06:19:22;;;;;;;1.73;1.17;;;;;;;15.16;94.60;99397.31;5031382;28;20132;-51
2021/10/03 06:21:50;;;;;;;0.98;0.70;;;;;;;15.19;94.90;99396.66;5031370;28;20037;-51
2021/10/03 06:24:18;;;;;;;2.42;1.00;;;;;;;15.21;94.54;99399.88;5031223;28;20429;-51
2021/10/03 06:26:47;;;;;;;3.28;1.40;;;;;;;15.18;94.45;99395.06;5031070;28;20100;-49
2021/10/03 06:29:16;;;;;;;3.28;1.30;;;;;;;15.12;94.66;99394.44;5031219;28;20048;-51
2021/10/03 06:31:43;;;;;;;3.55;1.52;;;;;;;15.09;95.18;99391.56;5031077;28;20041;-50
2021/10/03 06:34:11;;;;;;;3.03;1.30;;;;;;;15.10;95.72;99395.91;5030576;28;20554;-51
2021/10/03 06:36:39;;;;;;;1.42;1.02;;;;;;;15.13;95.89;99392.50;5030688;28;20497;-49
2021/10/03 06:39:06;;;;;;;2.78;1.38;;;;;;;15.16;95.60;99410.25;5031097;28;20041;-51
2021/10/03 06:41:34;;;;;;;2.88;1.48;;;;;;;15.16;95.47;99402.81;5030425;28;20064;-50
2021/10/03 06:44:03;;;;;;;1.88;1.10;;;;;;;15.16;95.79;99419.28;5030051;28;20116;-51
2021/10/03 06:46:31;;;;;;;3.35;1.48;;;;;;;15.16;95.50;99407.50;5030612;28;20056;-52
2021/10/03 06:48:59;;;;;;;2.83;1.48;;;;;;;15.16;95.59;99413.00;5031134;28;20049;-47
2021/10/03 06:51:26;;;;;;;1.70;1.00;;;;;;;15.13;95.88;99412.50;5031028;28;20538;-51
2021/10/03 06:53:54;;;;;;;2.63;1.60;;;;;;;15.09;95.87;99419.00;5030423;28;20096;-52
2021/10/03 06:56:22;;;;;;;4.05;1.60;;;;;;;15.09;96.07;99419.00;5030962;28;20395;-51
2021/10/03 06:58:50;;;;;;;1.85;1.33;;;;;;;15.11;96.23;99422.22;5031119;28;20057;-48
2021/10/03 07:01:17;;;;;;;1.50;1.17;;;;;;;15.14;96.32;99429.78;5030826;28;20045;-45
2021/10/03 07:04:05;;;;;;;3.35;1.25;;;;;;;15.13;95.75;99430.91;5027976;28;20056;-44
2021/10/03 07:06:33;;;;;;;2.45;1.13;;;;;;;15.10;95.89;99426.06;5030690;28;20045;-44
2021/10/03 07:09:00;;;;;;;2.65;1.17;;;;;;;15.09;96.04;99424.47;5030192;28;20045;-44
2021/10/03 07:11:28;;;;;;;3.25;1.45;;;;;;;15.08;96.30;99425.59;5030932;28;20041;-44
2021/10/03 07:13:55;;;;;;;2.35;1.30;;;;;;;15.06;96.28;99422.41;5030567;28;20072;-44
2021/10/03 07:16:23;;;;;;;1.50;1.35;;;;;;;15.05;96.41;99434.50;5030476;28;20053;-45
2021/10/03 07:18:51;;;;;;;3.42;1.60;;;;;;;15.02;96.16;99440.66;5030471;28;20408;-48
2021/10/03 07:21:19;;;;;;;3.28;1.15;;;;;;;15.01;96.59;99439.88;5029670;28;20047;-45
2021/10/03 07:23:46;;;;;;;7.05;1.60;;;;;;;15.02;96.69;99440.66;5032244;28;20404;-48
2021/10/03 07:26:14;;;;;;;2.10;1.55;;;;;;;15.02;96.39;99435.16;5034227;28;20040;-47
2021/10/03 07:28:42;;;;;;;1.67;1.33;;;;;;;14.98;96.18;99439.72;5034270;28;20065;-46
2021/10/03 07:31:10;;;;;;;3.40;1.40;;;;;;;14.96;96.47;99445.53;5034087;28;20056;-49
2021/10/03 07:33:38;;;;;;;5.15;1.90;;;;;;;14.97;96.72;99441.66;5033870;28;20488;-49
2021/10/03 07:36:06;;;;;;;6.53;1.90;;;;;;;14.98;96.35;99440.50;5033808;28;20128;-47
2021/10/03 07:38:34;;;;;;;2.85;1.83;;;;;;;14.98;96.85;99432.28;5033632;28;20045;-48
2021/10/03 07:41:01;;;;;;;6.30;2.00;;;;;;;15.00;96.24;99449.22;5033673;28;20432;-47
2021/10/03 07:43:29;;;;;;;2.88;1.52;;;;;;;14.98;96.22;99439.72;5034080;28;20417;-49
2021/10/03 07:45:56;;;;;;;5.30;2.15;;;;;;;14.95;96.16;99440.38;5034123;28;20417;-48
2021/10/03 07:48:24;;;;;;;2.83;2.00;;;;;;;14.93;96.47;99451.66;5033720;28;20042;-46
2021/10/03 07:50:55;;;;;;;3.17;1.70;;;;;;;14.95;96.79;99463.13;5034105;28;20099;-49
2021/10/03 07:53:23;;;;;;;2.60;1.48;;;;;;;14.95;96.24;99462.31;5033672;28;20412;-48
2021/10/03 07:55:50;;;;;;;2.85;1.70;;;;;;;14.91;96.15;99457.50;5034021;28;20041;-48
2021/10/03 07:58:18;;;;;;;3.28;1.95;;;;;;;14.90;96.11;99472.34;5033781;28;20145;-49
2021/10/03 08:00:45;;;;;;;4.55;1.80;;;;;;;14.93;96.07;99465.38;5033917;28;20041;-47
2021/10/03 08:03:13;;;;;;;3.30;1.40;;;;;;;14.91;96.19;99473.13;5033771;28;20041;-46
2021/10/03 08:05:41;;;;;;;2.22;1.45;;;;;;;14.89;95.99;99476.22;5033571;28;20038;-48
2021/10/03 08:08:09;;;;;;;2.13;1.45;;;;;;;14.88;96.15;99469.13;5033125;28;20045;-48
2021/10/03 08:10:36;;;;;;;4.78;2.20;;;;;;;14.90;96.10;99477.81;5031412;28;20053;-47
2021/10/03 08:13:04;;;;;;;3.55;1.70;;;;;;;14.90;96.16;99483.31;5033162;28;20076;-46
2021/10/03 08:15:33;;;;;;;1.45;1.30;;;;;;;14.82;95.91;99480.63;5032123;28;20058;-48
2021/10/03 08:18:01;;;;;;;1.35;1.25;;;;;;;14.65;96.05;99476.00;5033135;28;20042;-45
2021/10/03 08:20:29;;;;;;;2.38;1.58;;;;;;;14.64;96.66;99479.88;5032529;28;20453;-46
2021/10/03 08:22:57;;;;;;;1.80;1.30;;;;;;;14.57;96.36;99485.84;5032503;28;20041;-48
2021/10/03 08:25:25;;;;;;;2.50;1.00;;;;;;;14.47;95.63;99481.50;5023854;28;20048;-48
2021/10/03 08:27:52;;;;;;;1.58;1.02;;;;;;;14.43;95.52;99488.78;5032933;28;20443;-48
2021/10/03 08:30:20;;;;;;;2.47;1.33;;;;;;;14.39;94.96;99490.56;5033188;28;20048;-50
2021/10/03 08:32:48;;;;;;;4.00;1.10;;;;;;;14.32;94.07;99498.47;5032823;28;20038;-48
2021/10/03 08:35:15;;;;;;;2.47;0.98;;;;;;;14.28;94.66;99506.53;5032628;28;20132;-46
2021/10/03 08:37:44;;;;;;;4.20;1.20;;;;;;;14.28;94.43;99505.72;5032785;28;20392;-46
2021/10/03 08:40:13;;;;;;;4.35;1.63;;;;;;;14.28;94.00;99525.69;5032426;28;20048;-48
2021/10/03 08:42:41;;;;;;;8.68;2.65;;;;;;;14.22;93.29;99526.22;5032595;28;20049;-46
2021/10/03 08:45:09;;;;;;;5.80;2.10;;;;;;;14.16;93.42;99524.75;5032684;28;20038;-45
2021/10/03 08:47:40;;;;;;;1.55;1.27;;;;;;;14.08;93.73;99509.94;5032962;28;20492;-46
2021/10/03 08:50:11;;;;;;;3.60;1.38;;;;;;;14.03;94.13;99510.91;5032421;28;20128;-48
2021/10/03 08:52:41;;;;;;;2.88;1.33;;;;;;;14.02;94.79;99514.78;5025832;28;20053;-48
2021/10/03 08:55:10;;;;;;;3.10;1.35;;;;;;;13.99;94.92;99495.44;5032969;28;20107;-47
2021/10/03 08:57:38;;;;;;;1.60;1.05;;;;;;;13.77;96.01;99510.13;5019242;28;20041;-48
2021/10/03 09:00:17;;;;;;;1.63;1.00;;;;;;;13.85;96.22;99512.03;5032216;28;20041;-48
2021/10/03 09:03:00;;;;;;;4.75;1.60;;;;;;;13.96;95.69;99521.53;5032487;28;20051;-47
2021/10/03 09:05:30;;;;;;;1.42;1.10;;;;;;;14.03;94.62;99527.34;5030707;28;20410;-45
2021/10/03 09:08:05;;;;;;;3.95;1.30;;;;;;;14.04;94.10;99523.47;5032427;28;20041;-48
2021/10/03 09:10:52;;;;;;;6.20;1.42;;;;;;;14.05;93.85;99530.56;5032344;28;20056;-48
2021/10/03 09:13:22;;;;;;;2.22;1.30;;;;;;;14.09;94.18;99532.66;5032052;28;20045;-47
2021/10/03 09:16:08;;;;;;;2.55;1.38;;;;;;;14.05;94.08;99529.78;5031902;28;20049;-45
2021/10/03 09:18:40;;;;;;;3.80;1.75;;;;;;;14.07;94.51;99533.78;5031756;28;20522;-46
2021/10/03 09:21:09;;;;;;;3.08;1.30;;;;;;;14.05;94.05;99541.53;5031919;28;20041;-48
2021/10/03 09:23:38;;;;;;;2.35;1.15;;;;;;;14.05;94.32;99555.22;5032032;28;20041;-49
2021/10/03 09:26:11;;;;;;;4.18;1.60;;;;;;;14.09;94.87;99551.81;5031714;28;20508;-50
2021/10/03 09:28:39;;;;;;;2.60;1.27;;;;;;;14.14;94.63;99554.41;5032062;28;20049;-46
2021/10/03 09:31:17;;;;;;;3.28;1.23;;;;;;;14.18;94.56;99561.66;5028182;28;20049;-47
2021/10/03 09:33:56;;;;;;;2.65;1.33;;;;;;;14.20;94.49;99566.81;5031401;28;20030;-51
2021/10/03 09:36:30;;;;;;;2.00;1.33;;;;;;;14.19;94.05;99560.53;5032022;28;20464;-50
2021/10/03 09:39:07;;;;;;;3.22;1.42;;;;;;;14.19;94.04;99557.81;5030729;28;20096;-48
2021/10/03 09:41:38;;;;;;;2.83;1.38;;;;;;;14.25;94.12;99555.69;5030941;28;20056;-47
2021/10/03 09:44:13;;;;;;;2.50;1.67;;;;;;;14.26;94.10;99552.63;5031553;28;20056;-49
2021/10/03 09:46:44;;;;;;;1.53;1.20;;;;;;;14.32;93.88;99545.06;5030848;28;20042;-45
2021/10/03 09:49:29;;;;;;;1.73;1.40;;;;;;;14.31;93.75;99553.59;5018347;28;20288;-45
2021/10/03 09:51:57;;;;;;;1.53;1.40;;;;;;;14.28;94.32;99552.28;5031872;28;20095;-50
2021/10/03 09:54:26;;;;;;;2.17;1.33;;;;;;;14.24;94.52;99563.13;5031133;28;20396;-46
2021/10/03 09:56:54;;;;;;;1.77;1.45;;;;;;;14.28;94.72;99566.78;5032126;28;20106;-45
2021/10/03 09:59:22;;;;;;;2.17;1.35;;;;;;;14.32;94.57;99564.22;5018290;28;20037;-45
2021/10/03 10:01:49;;;;;;;1.63;1.25;;;;;;;14.35;94.14;99560.84;5031366;28;20045;-46
2021/10/03 10:04:49;;;;;;;6.10;3.08;;;;;;;14.36;94.36;99559.72;5030801;28;20099;-45
2021/10/03 10:07:18;;;;;;;7.85;5.10;;;;;;;14.38;94.70;99565.69;5027512;28;20054;-49
2021/10/03 10:09:47;;;;;;;2.13;1.75;;;;;;;14.40;94.34;99570.81;5032404;28;20042;-53
2021/10/03 10:12:26;;;;;;;1.40;1.13;;;;;;;14.40;93.73;99574.38;5031985;28;20045;-53
2021/10/03 10:15:04;;;;;;;2.78;1.50;;;;;;;14.41;93.79;99572.44;5029772;28;20040;-49
2021/10/03 10:17:39;;;;;;;1.42;1.27;;;;;;;14.41;93.77;99575.19;5027166;28;20780;-49
2021/10/03 10:20:22;;;;;;;2.38;1.45;;;;;;;14.43;94.07;99573.72;5031490;28;20041;-50
2021/10/03 10:22:56;;;;;;;1.65;1.40;;;;;;;14.47;94.00;99585.63;5031038;28;20049;-50
2021/10/03 10:25:46;;;;;;;1.98;1.27;;;;;;;14.46;94.04;99584.03;5030733;28;20041;-49
2021/10/03 10:28:17;;;;;;;2.33;2.00;;;;;;;14.48;93.90;99583.72;5013291;28;20423;-50
2021/10/03 10:31:18;;;;;;;1.83;1.60;;;;;;;14.46;94.12;99603.22;5023886;28;20124;-50
2021/10/03 10:33:53;;;;;;;1.35;1.23;;;;;;;14.48;93.91;99587.28;5007087;28;20050;-48
2021/10/03 10:36:23;;;;;;;1.10;0.93;;;;;;;14.47;93.70;99607.56;5008783;28;20054;-47
2021/10/03 10:39:08;;;;;;;1.75;1.00;;;;;;;14.49;93.83;99599.03;5008973;28;20157;-50
2021/10/03 10:41:38;;;;;;;;;;;;;;;14.52;93.60;99609.34;5009338;28;20125;-48
2021/10/03 10:44:24;;;;;;;1.50;1.00;;;;;;;14.55;93.66;99602.44;5009040;28;20011;-49
2021/10/03 10:46:53;;;;;;;1.38;1.02;;;;;;;14.57;92.97;99594.69;5003733;28;20141;-49
2021/10/03 10:49:46;;;;;;;1.58;1.10;;;;;;;14.48;92.38;99598.22;5008931;28;20060;-49
2021/10/03 10:52:20;;;;;;;1.88;1.75;;;;;;;14.46;93.05;99600.47;5009016;28;20045;-49
2021/10/03 10:55:06;;;;;;;2.00;1.17;;;;;;;14.46;93.50;99607.91;5008810;28;20056;-49
2021/10/03 10:57:59;;;;;;;1.38;1.23;;;;;;;14.46;93.44;99611.44;5005236;28;20513;-52
2021/10/03 11:00:29;;;;;;;1.92;1.70;;;;;;;14.47;93.72;99615.78;5001128;28;20117;-49
2021/10/03 11:03:01;;;;;;;1.85;1.10;;;;;;;14.47;93.95;99612.25;4999931;28;20128;-49
2021/10/03 11:05:36;;;;;;;1.13;0.90;;;;;;;14.49;93.41;99613.53;5011385;28;20034;-49
2021/10/03 11:08:11;;;;;;;2.63;1.67;;;;;;;14.51;93.52;99612.41;5012540;28;20045;-49
2021/10/03 11:11:00;;;;;;;3.47;1.75;;;;;;;14.56;93.53;99609.53;5034384;28;20092;-49
2021/10/03 11:13:50;;;;;;;4.57;2.55;;;;;;;14.55;93.82;99618.88;5034135;28;20045;-49
2021/10/03 11:16:37;;;;;;;5.50;2.15;;;;;;;14.54;94.18;99618.06;5033411;28;20053;-46
2021/10/03 11:19:10;;;;;;;4.30;2.95;;;;;;;14.49;93.25;99599.84;5033974;28;20041;-49
2021/10/03 11:21:42;;;;;;;5.05;2.95;;;;;;;14.43;93.46;99605.78;5033884;28;20041;-49
2021/10/03 11:24:15;;;;;;;5.53;3.20;;;;;;;14.42;94.23;99610.47;5032581;28;20068;-50
2021/10/03 11:26:53;;;;;;;5.32;2.60;;;;;;;14.48;94.30;99609.19;5033354;28;20045;-52
2021/10/03 11:29:23;;;;;;;2.22;1.83;;;;;;;14.49;95.10;99619.00;5033301;28;20041;-48
2021/10/03 11:31:59;;;;;;;2.88;1.70;;;;;;;14.52;94.49;99624.97;5034188;28;20045;-49
2021/10/03 11:34:37;;;;;;;1.45;1.35;;;;;;;14.52;94.75;99630.47;5033512;28;20069;-50
2021/10/03 11:37:14;;;;;;;3.03;2.20;;;;;;;14.55;94.50;99619.72;5034018;28;20451;-48
2021/10/03 11:40:06;;;;;;;12.40;8.68;;;;;;;14.54;94.42;99623.56;5029759;28;20420;-50
2021/10/03 11:42:44;;;;;;;10.05;6.65;;;;;;;14.46;95.11;99629.84;5033358;28;20067;-51
2021/10/03 11:45:33;;;;;;;13.55;8.23;;;;;;;14.52;96.02;99635.94;5031838;28;20048;-49